Time;durP1;ratioP1;P1;durP2;ratioP2;P2;SDS_P1;SDS_P2;PMS_P1;PMS_P2;Temp;Humidity;BMP_temperature;BMP_pressure;BME280_temperature;BME280_humidity;BME280_pressure;Samples;Min_cycle;Max_cycle;Signal;HPM_P1;HPM_P2
2024/02/11 00:02:16;;;;;;;13.45;4.53;;;5.40;99.90;;;;;;5049754;28;20044;-69
2024/02/11 00:04:44;;;;;;;11.82;4.88;;;5.40;99.90;;;;;;5049602;28;20439;-69
2024/02/11 00:07:11;;;;;;;7.97;4.25;;;5.40;99.90;;;;;;5048747;28;20029;-69
2024/02/11 00:09:36;;;;;;;11.45;3.90;;;5.40;99.90;;;;;;5050810;28;20055;-69
2024/02/11 00:12:02;;;;;;;12.25;4.93;;;5.40;99.90;;;;;;5046715;28;20335;-69
2024/02/11 00:14:27;;;;;;;10.35;4.22;;;5.30;99.90;;;;;;5046744;28;20032;-69
2024/02/11 00:16:59;;;;;;;11.95;5.10;;;5.30;99.90;;;;;;5044348;28;20085;-69
2024/02/11 00:19:25;;;;;;;11.40;4.18;;;5.30;99.90;;;;;;5048282;28;20131;-69
2024/02/11 00:21:50;;;;;;;10.05;5.15;;;5.30;99.90;;;;;;5047293;28;20255;-69
2024/02/11 00:24:16;;;;;;;9.90;4.32;;;5.30;99.90;;;;;;5052672;28;20504;-69
2024/02/11 00:26:41;;;;;;;9.07;4.57;;;5.30;99.90;;;;;;5043268;28;20021;-69
2024/02/11 00:29:09;;;;;;;9.00;4.43;;;5.30;99.90;;;;;;5050159;28;20094;-69
2024/02/11 00:31:35;;;;;;;8.90;3.97;;;5.30;99.90;;;;;;5049960;28;20380;-69
2024/02/11 00:34:04;;;;;;;7.78;3.92;;;5.30;99.90;;;;;;5043701;28;20059;-69
2024/02/11 00:36:30;;;;;;;12.60;4.30;;;5.30;99.90;;;;;;5049361;28;20021;-69
2024/02/11 00:38:55;;;;;;;11.18;4.28;;;5.40;99.90;;;;;;5047329;28;20051;-69
2024/02/11 00:41:21;;;;;;;10.25;4.78;;;5.40;99.90;;;;;;5043746;28;20021;-69
2024/02/11 00:43:50;;;;;;;9.40;4.28;;;5.30;99.90;;;;;;5045965;28;20374;-69
2024/02/11 00:46:16;;;;;;;9.55;4.25;;;5.30;99.90;;;;;;5027772;28;20055;-69
2024/02/11 00:48:42;;;;;;;7.97;4.13;;;5.30;99.90;;;;;;5048219;28;20060;-69
2024/02/11 00:51:10;;;;;;;9.48;3.97;;;5.30;99.90;;;;;;5030573;28;20067;-69
2024/02/11 00:53:36;;;;;;;9.13;4.30;;;5.30;99.90;;;;;;5046126;28;20052;-69
2024/02/11 00:56:02;;;;;;;10.18;4.85;;;5.30;99.90;;;;;;5043257;28;20048;-69
2024/02/11 00:58:27;;;;;;;8.48;2.88;;;5.30;99.90;;;;;;5029445;28;20025;-69
2024/02/11 01:00:53;;;;;;;9.50;4.55;;;5.30;99.90;;;;;;5045830;28;20355;-69
2024/02/11 01:03:18;;;;;;;7.80;4.30;;;5.20;99.90;;;;;;5041896;28;20041;-69
2024/02/11 01:05:44;;;;;;;13.27;5.13;;;5.20;99.90;;;;;;5046181;28;20109;-69
2024/02/11 01:08:12;;;;;;;9.73;4.80;;;5.20;99.90;;;;;;5045662;28;20119;-69
2024/02/11 01:10:38;;;;;;;10.35;4.43;;;5.20;99.90;;;;;;5046192;28;20512;-70
2024/02/11 01:13:04;;;;;;;9.25;3.58;;;5.10;99.90;;;;;;5042033;28;20442;-69
2024/02/11 01:15:30;;;;;;;11.55;4.25;;;5.20;99.90;;;;;;5044252;28;20125;-69
2024/02/11 01:17:55;;;;;;;9.43;4.05;;;5.10;99.90;;;;;;5045461;28;20044;-69
2024/02/11 01:20:21;;;;;;;11.65;4.60;;;5.10;99.90;;;;;;5044530;28;20460;-69
2024/02/11 01:22:47;;;;;;;8.48;4.25;;;5.10;99.90;;;;;;5041802;28;20140;-69
2024/02/11 01:25:19;;;;;;;9.48;4.25;;;5.10;99.90;;;;;;5042901;28;20024;-69
2024/02/11 01:27:49;;;;;;;9.85;3.72;;;5.10;99.90;;;;;;5040961;28;20043;-69
2024/02/11 01:30:15;;;;;;;8.60;4.22;;;5.10;99.90;;;;;;5045137;28;20081;-69
2024/02/11 01:32:40;;;;;;;9.63;3.88;;;5.10;99.90;;;;;;5045943;28;20030;-68
2024/02/11 01:35:07;;;;;;;8.85;3.72;;;5.10;99.90;;;;;;5045522;28;20122;-69
2024/02/11 01:37:33;;;;;;;9.70;4.18;;;5.10;99.90;;;;;;5042693;28;20447;-69
2024/02/11 01:39:58;;;;;;;11.70;4.10;;;5.10;99.90;;;;;;5046722;28;20112;-69
2024/02/11 01:42:24;;;;;;;9.15;3.60;;;5.10;99.90;;;;;;5051223;28;20100;-68
2024/02/11 01:44:49;;;;;;;8.82;4.15;;;5.10;99.90;;;;;;5045212;28;20084;-69
2024/02/11 01:47:16;;;;;;;9.57;4.10;;;5.10;99.90;;;;;;5044853;28;20113;-69
2024/02/11 01:49:42;;;;;;;7.72;3.83;;;5.10;99.90;;;;;;5045010;28;20059;-69
2024/02/11 01:52:07;;;;;;;9.10;4.75;;;5.10;99.90;;;;;;5047964;28;20036;-69
2024/02/11 01:54:35;;;;;;;9.10;3.65;;;5.10;99.90;;;;;;5045681;28;20029;-69
2024/02/11 01:57:00;;;;;;;10.77;4.18;;;5.10;99.90;;;;;;5042732;28;20104;-69
2024/02/11 01:59:29;;;;;;;9.07;4.97;;;5.10;99.90;;;;;;5041343;28;20124;-69
2024/02/11 02:01:54;;;;;;;12.13;4.70;;;5.00;99.90;;;;;;5047821;28;20057;-69
2024/02/11 02:04:20;;;;;;;7.60;3.50;;;5.10;99.90;;;;;;5047016;28;20041;-69
2024/02/11 02:06:46;;;;;;;10.45;4.65;;;5.00;99.90;;;;;;5049863;28;20059;-69
2024/02/11 02:09:12;;;;;;;11.88;3.88;;;5.10;99.90;;;;;;5054181;28;20723;-69
2024/02/11 02:11:38;;;;;;;8.45;4.30;;;5.10;99.90;;;;;;5053345;28;20036;-69
2024/02/11 02:14:05;;;;;;;8.02;4.07;;;5.00;99.90;;;;;;5048905;28;20032;-69
2024/02/11 02:16:30;;;;;;;10.07;4.18;;;5.00;99.90;;;;;;5049691;28;20064;-69
2024/02/11 02:18:56;;;;;;;7.75;3.60;;;5.00;99.90;;;;;;5056969;28;20236;-69
2024/02/11 02:21:26;;;;;;;8.68;3.90;;;5.00;99.90;;;;;;5050793;28;20037;-69
2024/02/11 02:23:52;;;;;;;11.47;3.97;;;5.00;99.90;;;;;;5054679;28;20037;-68
2024/02/11 02:26:17;;;;;;;9.35;4.15;;;4.90;99.90;;;;;;5049432;28;20071;-69
2024/02/11 02:28:43;;;;;;;8.75;3.85;;;4.90;99.90;;;;;;5050806;28;20509;-69
2024/02/11 02:31:10;;;;;;;10.52;3.75;;;4.90;99.90;;;;;;5050674;28;20347;-69
2024/02/11 02:33:36;;;;;;;8.98;4.03;;;4.90;99.90;;;;;;5055044;28;20453;-69
2024/02/11 02:36:03;;;;;;;7.40;3.30;;;4.90;99.90;;;;;;5048201;28;20033;-69
2024/02/11 02:38:28;;;;;;;10.52;4.25;;;4.90;99.90;;;;;;5051686;28;20178;-69
2024/02/11 02:40:54;;;;;;;9.20;3.85;;;4.90;99.90;;;;;;5048618;28;20124;-69
2024/02/11 02:43:19;;;;;;;8.23;3.92;;;4.90;99.90;;;;;;5032056;28;20153;-69
2024/02/11 02:45:45;;;;;;;13.75;4.45;;;4.90;99.90;;;;;;5050195;28;20039;-69
2024/02/11 02:48:10;;;;;;;9.10;4.35;;;4.90;99.90;;;;;;5053184;28;20095;-69
2024/02/11 02:50:36;;;;;;;10.90;4.20;;;4.90;99.90;;;;;;5046223;28;20029;-69
2024/02/11 02:53:02;;;;;;;7.10;3.75;;;4.80;99.90;;;;;;5053110;28;20028;-68
2024/02/11 02:55:28;;;;;;;9.73;4.15;;;4.80;99.90;;;;;;5048577;28;20447;-69
2024/02/11 02:57:54;;;;;;;9.63;3.40;;;4.80;99.90;;;;;;5049470;28;20056;-69
2024/02/11 03:00:20;;;;;;;8.80;4.05;;;4.80;99.90;;;;;;5048555;28;20070;-69
2024/02/11 03:02:46;;;;;;;7.78;4.03;;;4.80;99.90;;;;;;5051146;28;20462;-69
2024/02/11 03:05:11;;;;;;;8.63;4.28;;;4.80;99.90;;;;;;5054357;28;20061;-69
2024/02/11 03:07:40;;;;;;;9.00;3.30;;;4.80;99.90;;;;;;5053706;28;20029;-68
2024/02/11 03:10:07;;;;;;;9.43;4.18;;;4.70;99.90;;;;;;5057024;28;20029;-69
2024/02/11 03:12:32;;;;;;;10.88;4.60;;;4.80;99.90;;;;;;5049992;28;20028;-69
2024/02/11 03:14:58;;;;;;;9.18;4.55;;;4.80;99.90;;;;;;5052256;28;20132;-69
2024/02/11 03:17:23;;;;;;;7.97;3.40;;;4.80;99.90;;;;;;5054231;28;20103;-69
2024/02/11 03:19:49;;;;;;;8.70;3.97;;;4.80;99.90;;;;;;5051167;28;20499;-69
2024/02/11 03:22:14;;;;;;;9.25;4.15;;;4.70;99.90;;;;;;5044933;28;20040;-69
2024/02/11 03:24:40;;;;;;;9.32;3.75;;;4.80;99.90;;;;;;5047041;28;20051;-69
2024/02/11 03:27:06;;;;;;;7.93;3.13;;;4.70;99.90;;;;;;5031426;28;20047;-69
2024/02/11 03:29:35;;;;;;;9.85;4.00;;;4.80;99.90;;;;;;5050890;28;20087;-69
2024/02/11 03:32:00;;;;;;;8.25;3.60;;;4.80;99.90;;;;;;5052239;28;20098;-69
2024/02/11 03:34:26;;;;;;;10.77;4.60;;;4.70;99.90;;;;;;5047257;28;20029;-69
2024/02/11 03:36:52;;;;;;;10.82;4.20;;;4.70;99.90;;;;;;5048228;28;20021;-68
2024/02/11 03:39:19;;;;;;;9.30;3.92;;;4.80;99.90;;;;;;5051802;28;20408;-69
2024/02/11 03:41:44;;;;;;;7.82;3.80;;;4.80;99.90;;;;;;5028954;28;21543;-69
2024/02/11 03:44:10;;;;;;;8.40;3.65;;;4.80;99.90;;;;;;5046616;28;20131;-69
2024/02/11 03:46:36;;;;;;;9.82;3.90;;;4.70;99.90;;;;;;5054792;28;20045;-69
2024/02/11 03:49:01;;;;;;;9.77;4.25;;;4.70;99.90;;;;;;5049680;28;20025;-69
2024/02/11 03:51:27;;;;;;;9.50;4.65;;;4.80;99.90;;;;;;5033303;28;20044;-69
2024/02/11 03:53:52;;;;;;;8.63;3.83;;;4.70;99.90;;;;;;5048688;28;20413;-69
2024/02/11 03:56:22;;;;;;;9.38;4.28;;;4.70;99.90;;;;;;5051716;28;20040;-69
2024/02/11 03:58:49;;;;;;;10.02;3.95;;;4.70;99.90;;;;;;5048454;28;20415;-69
2024/02/11 04:01:18;;;;;;;8.98;2.97;;;4.70;99.90;;;;;;5050239;28;20388;-69
2024/02/11 04:03:43;;;;;;;8.70;4.18;;;4.70;99.90;;;;;;5045597;28;20037;-69
2024/02/11 04:06:09;;;;;;;8.35;4.15;;;4.70;99.90;;;;;;5046350;28;20504;-69
2024/02/11 04:08:35;;;;;;;10.13;4.10;;;4.70;99.90;;;;;;5048748;28;20033;-69
2024/02/11 04:11:01;;;;;;;8.57;4.15;;;4.70;99.90;;;;;;5044859;28;20044;-69
2024/02/11 04:13:26;;;;;;;6.72;3.65;;;4.70;99.90;;;;;;5028124;28;20029;-69
2024/02/11 04:15:56;;;;;;;10.32;3.90;;;4.70;99.90;;;;;;5043326;28;20812;-69
2024/02/11 04:18:23;;;;;;;7.63;3.38;;;4.70;99.90;;;;;;5050479;28;20151;-69
2024/02/11 04:20:48;;;;;;;7.63;3.83;;;4.70;99.90;;;;;;5049397;28;20112;-69
2024/02/11 04:23:14;;;;;;;9.05;3.92;;;4.70;99.90;;;;;;5043549;28;20233;-69
2024/02/11 04:25:41;;;;;;;9.45;3.83;;;4.70;99.90;;;;;;5044007;28;20041;-69
2024/02/11 04:28:10;;;;;;;7.70;3.42;;;4.70;99.90;;;;;;5046696;28;20146;-69
2024/02/11 04:30:37;;;;;;;9.55;4.10;;;4.70;99.90;;;;;;5049075;28;20502;-69
2024/02/11 04:33:03;;;;;;;9.27;3.60;;;4.70;99.90;;;;;;5048909;28;20196;-69
2024/02/11 04:35:30;;;;;;;9.77;4.00;;;4.70;99.90;;;;;;5026523;28;20037;-69
2024/02/11 04:37:55;;;;;;;8.70;3.35;;;4.70;99.90;;;;;;5048537;28;20335;-69
2024/02/11 04:40:24;;;;;;;8.27;4.38;;;4.70;99.90;;;;;;5046626;28;20040;-68
2024/02/11 04:42:54;;;;;;;7.82;3.28;;;4.70;99.90;;;;;;5049467;28;20113;-69
2024/02/11 04:45:23;;;;;;;8.60;3.67;;;4.70;99.90;;;;;;5045796;28;20029;-69
2024/02/11 04:47:58;;;;;;;8.45;4.47;;;4.70;99.90;;;;;;5047231;28;20061;-69
2024/02/11 04:50:26;;;;;;;9.05;3.60;;;4.70;99.90;;;;;;5049833;28;20036;-69
2024/02/11 04:52:55;;;;;;;7.65;3.85;;;4.70;99.90;;;;;;5041729;28;20029;-69
2024/02/11 04:55:24;;;;;;;9.00;4.70;;;4.70;99.90;;;;;;5043518;28;20052;-69
2024/02/11 04:57:50;;;;;;;10.15;3.60;;;4.70;99.90;;;;;;5044847;28;20025;-69
2024/02/11 05:00:25;;;;;;;6.75;3.95;;;4.70;99.90;;;;;;5046995;28;20052;-68
2024/02/11 05:02:58;;;;;;;9.20;4.45;;;4.80;99.90;;;;;;5050584;28;20037;-69
2024/02/11 05:05:28;;;;;;;8.75;4.03;;;4.80;99.90;;;;;;5049686;28;20090;-69
2024/02/11 05:08:03;;;;;;;10.50;4.90;;;4.70;99.90;;;;;;5046686;28;20484;-69
2024/02/11 05:10:34;;;;;;;10.43;4.38;;;4.70;99.90;;;;;;5043542;28;20052;-69
2024/02/11 05:13:04;;;;;;;7.82;4.05;;;4.70;99.90;;;;;;5042516;28;20029;-69
2024/02/11 05:15:33;;;;;;;8.97;4.17;;;4.80;99.90;;;;;;5048285;28;20132;-69
2024/02/11 05:18:00;;;;;;;7.63;3.40;;;4.80;99.90;;;;;;5047241;28;20299;-69
2024/02/11 05:20:27;;;;;;;8.52;3.97;;;4.80;99.90;;;;;;5044498;28;20045;-68
2024/02/11 05:22:55;;;;;;;9.57;4.20;;;4.80;99.90;;;;;;5047078;28;20060;-69
2024/02/11 05:25:21;;;;;;;9.27;4.25;;;4.80;99.90;;;;;;5044609;28;20095;-68
2024/02/11 05:27:58;;;;;;;7.35;3.95;;;4.80;99.90;;;;;;5043987;28;20163;-69
2024/02/11 05:30:26;;;;;;;8.18;3.38;;;4.70;99.90;;;;;;5048254;28;20450;-69
2024/02/11 05:32:53;;;;;;;11.65;4.70;;;4.70;99.90;;;;;;5048813;28;20029;-69
2024/02/11 05:35:23;;;;;;;9.52;4.32;;;4.80;99.90;;;;;;5041366;28;20482;-69
2024/02/11 05:37:57;;;;;;;10.10;4.30;;;4.70;99.90;;;;;;5050604;28;20505;-69
2024/02/11 05:40:26;;;;;;;9.30;3.80;;;4.70;99.90;;;;;;5045924;28;20108;-69
2024/02/11 05:42:53;;;;;;;12.80;4.57;;;4.80;99.90;;;;;;5049257;28;20055;-69
2024/02/11 05:45:20;;;;;;;12.68;4.68;;;4.70;99.90;;;;;;5048394;28;20047;-69
2024/02/11 05:47:47;;;;;;;9.48;4.03;;;4.80;99.90;;;;;;5051309;28;20032;-70
2024/02/11 05:50:12;;;;;;;7.05;3.67;;;4.80;99.90;;;;;;5049055;28;20047;-69
2024/02/11 05:52:39;;;;;;;12.43;4.07;;;4.80;99.90;;;;;;5054014;28;20103;-69
2024/02/11 05:55:09;;;;;;;8.88;4.32;;;4.80;99.90;;;;;;5048212;28;20120;-68
2024/02/11 05:57:36;;;;;;;10.43;4.00;;;4.70;99.90;;;;;;5046698;28;20032;-69
2024/02/11 06:00:01;;;;;;;12.55;4.35;;;4.80;99.90;;;;;;5048009;28;20799;-69
2024/02/11 06:02:26;;;;;;;10.15;4.50;;;4.70;99.90;;;;;;5043174;28;20040;-69
2024/02/11 06:04:53;;;;;;;9.07;4.50;;;4.80;99.90;;;;;;5053287;28;20064;-69
2024/02/11 06:07:19;;;;;;;10.07;4.57;;;4.70;99.90;;;;;;5049455;28;20025;-69
2024/02/11 06:09:45;;;;;;;10.57;4.20;;;4.70;99.90;;;;;;5047398;28;20378;-69
2024/02/11 06:12:11;;;;;;;9.68;4.60;;;4.70;99.90;;;;;;5044290;28;20041;-69
2024/02/11 06:14:37;;;;;;;8.77;4.75;;;4.70;99.90;;;;;;5046608;28;20074;-69
2024/02/11 06:17:06;;;;;;;9.80;4.07;;;4.80;99.90;;;;;;5035755;28;20223;-68
2024/02/11 06:19:32;;;;;;;11.68;4.68;;;4.80;99.90;;;;;;5051660;28;20029;-68
2024/02/11 06:21:59;;;;;;;9.05;4.50;;;4.80;99.90;;;;;;5052430;28;20044;-68
2024/02/11 06:24:24;;;;;;;12.40;4.80;;;4.70;99.90;;;;;;5048903;28;20033;-68
2024/02/11 06:26:50;;;;;;;8.93;4.60;;;4.80;99.90;;;;;;5041637;28;20035;-68
2024/02/11 06:29:17;;;;;;;8.32;4.07;;;4.70;99.90;;;;;;5044216;28;20063;-69
2024/02/11 06:31:43;;;;;;;9.45;4.63;;;4.80;99.90;;;;;;5044570;28;20069;-69
2024/02/11 06:34:08;;;;;;;11.93;4.28;;;4.70;99.90;;;;;;5042832;28;20109;-68
2024/02/11 06:36:37;;;;;;;8.30;4.03;;;4.80;99.90;;;;;;5042826;28;20037;-69
2024/02/11 06:39:04;;;;;;;10.52;4.05;;;4.70;99.90;;;;;;5042584;28;20041;-69
2024/02/11 06:41:31;;;;;;;8.82;3.88;;;4.80;99.90;;;;;;5042974;28;20393;-68
2024/02/11 06:44:03;;;;;;;10.77;4.85;;;4.80;99.90;;;;;;5045733;28;20347;-68
2024/02/11 06:46:29;;;;;;;9.32;4.22;;;4.70;99.90;;;;;;5045042;28;20133;-68
2024/02/11 06:48:55;;;;;;;12.45;4.78;;;4.70;99.90;;;;;;5044681;28;20171;-69
2024/02/11 06:51:21;;;;;;;9.02;4.28;;;4.70;99.90;;;;;;5055564;28;20041;-69
2024/02/11 06:53:46;;;;;;;11.23;5.40;;;4.70;99.90;;;;;;5055051;28;20527;-69
2024/02/11 06:56:12;;;;;;;9.75;4.72;;;4.70;99.90;;;;;;5051863;28;20124;-69
2024/02/11 06:58:41;;;;;;;9.68;4.03;;;4.70;99.90;;;;;;5056220;28;20036;-69
2024/02/11 07:01:09;;;;;;;6.88;3.70;;;4.70;99.90;;;;;;5047056;28;20033;-68
2024/02/11 07:03:37;;;;;;;9.00;4.35;;;4.70;99.90;;;;;;5057504;28;20036;-69
2024/02/11 07:06:06;;;;;;;9.40;5.05;;;4.70;99.90;;;;;;5052355;28;20029;-68
2024/02/11 07:08:36;;;;;;;9.70;4.57;;;4.70;99.90;;;;;;5052498;28;20129;-68
2024/02/11 07:11:02;;;;;;;7.67;4.30;;;4.70;99.90;;;;;;5045630;28;20502;-69
2024/02/11 07:13:28;;;;;;;9.75;4.50;;;4.70;99.90;;;;;;5055490;28;20028;-69
2024/02/11 07:15:56;;;;;;;11.98;4.35;;;4.70;99.90;;;;;;5048180;28;20057;-68
2024/02/11 07:18:23;;;;;;;10.48;4.55;;;4.70;99.90;;;;;;5051612;28;20044;-68
2024/02/11 07:20:49;;;;;;;12.10;5.10;;;4.70;99.90;;;;;;5049512;28;20108;-68
2024/02/11 07:23:14;;;;;;;9.35;4.85;;;4.70;99.90;;;;;;5049468;28;20049;-69
2024/02/11 07:25:40;;;;;;;12.73;5.32;;;4.70;99.90;;;;;;5045437;28;20063;-69
2024/02/11 07:28:05;;;;;;;10.48;4.15;;;4.70;99.90;;;;;;5044132;28;20028;-69
2024/02/11 07:30:31;;;;;;;8.52;4.10;;;4.70;99.90;;;;;;5044936;28;20388;-68
2024/02/11 07:32:56;;;;;;;10.52;5.25;;;4.70;99.90;;;;;;5058731;28;20037;-68
2024/02/11 07:35:23;;;;;;;10.68;4.65;;;4.70;99.90;;;;;;5039593;28;20098;-69
2024/02/11 07:37:48;;;;;;;9.13;4.55;;;4.70;99.90;;;;;;5052957;28;20021;-68
2024/02/11 07:40:16;;;;;;;11.65;4.57;;;4.70;99.90;;;;;;5049230;28;20112;-69
2024/02/11 07:42:42;;;;;;;10.75;4.20;;;4.70;99.90;;;;;;5056502;28;20485;-69
2024/02/11 07:45:14;;;;;;;10.32;4.13;;;4.70;99.90;;;;;;5050920;28;20037;-69
2024/02/11 07:47:45;;;;;;;10.65;4.63;;;4.70;99.90;;;;;;5051326;28;20078;-69
2024/02/11 07:50:14;;;;;;;13.23;4.68;;;4.70;99.90;;;;;;5046602;28;20045;-68
2024/02/11 07:52:40;;;;;;;9.25;4.40;;;4.70;99.90;;;;;;5047990;28;20086;-69
2024/02/11 07:55:07;;;;;;;11.70;5.22;;;4.70;99.90;;;;;;5044710;28;20546;-69
2024/02/11 07:57:33;;;;;;;9.70;4.95;;;4.70;99.90;;;;;;5047682;28;20025;-69
2024/02/11 07:59:58;;;;;;;15.27;5.38;;;4.70;99.90;;;;;;5048712;28;20418;-68
2024/02/11 08:02:24;;;;;;;7.38;3.47;;;4.70;99.90;;;;;;5048264;28;20505;-69
2024/02/11 08:04:50;;;;;;;8.27;3.80;;;4.70;99.90;;;;;;5050613;28;20048;-68
2024/02/11 08:07:16;;;;;;;14.50;5.60;;;4.70;99.90;;;;;;5050568;28;20588;-68
2024/02/11 08:09:42;;;;;;;11.25;4.70;;;4.70;99.90;;;;;;5048673;28;20380;-69
2024/02/11 08:12:08;;;;;;;9.90;4.35;;;4.70;99.90;;;;;;5042252;28;20174;-68
2024/02/11 08:14:37;;;;;;;13.48;4.82;;;4.70;99.90;;;;;;5046680;28;20021;-69
2024/02/11 08:17:03;;;;;;;8.32;3.75;;;4.70;99.90;;;;;;5045841;28;20526;-69
2024/02/11 08:19:28;;;;;;;10.80;4.90;;;4.70;99.90;;;;;;5055544;28;20051;-69
2024/02/11 08:21:55;;;;;;;10.93;4.60;;;4.70;99.90;;;;;;5047605;28;20036;-68
2024/02/11 08:24:20;;;;;;;10.40;4.28;;;4.70;99.90;;;;;;5048344;28;20032;-69
2024/02/11 08:26:47;;;;;;;11.13;4.03;;;4.70;99.90;;;;;;5045000;28;20115;-69
2024/02/11 08:29:13;;;;;;;12.43;4.70;;;4.70;99.90;;;;;;5046883;28;20159;-69
2024/02/11 08:31:39;;;;;;;11.18;4.93;;;4.80;99.90;;;;;;5046422;28;20037;-69
2024/02/11 08:34:05;;;;;;;9.90;4.82;;;4.80;99.90;;;;;;5044301;28;20104;-69
2024/02/11 08:36:30;;;;;;;10.77;4.38;;;4.80;99.90;;;;;;5045047;28;20033;-69
2024/02/11 08:38:58;;;;;;;11.45;4.95;;;4.80;99.90;;;;;;5043722;28;20032;-71
2024/02/11 08:41:23;;;;;;;8.98;3.97;;;4.80;99.90;;;;;;5036400;28;20064;-69
2024/02/11 08:43:49;;;;;;;9.82;4.53;;;4.80;99.90;;;;;;5049669;28;20592;-69
2024/02/11 08:46:14;;;;;;;12.63;5.40;;;4.80;99.90;;;;;;5047265;28;20434;-69
2024/02/11 08:48:40;;;;;;;9.32;4.15;;;4.80;99.90;;;;;;5043423;28;20044;-69
2024/02/11 08:51:06;;;;;;;12.73;5.05;;;4.80;99.90;;;;;;5045546;28;20072;-69
2024/02/11 08:53:32;;;;;;;9.43;4.25;;;4.80;99.90;;;;;;5049838;28;20037;-68
2024/02/11 08:55:57;;;;;;;11.93;5.15;;;4.90;99.90;;;;;;5039690;28;20039;-69
2024/02/11 08:58:24;;;;;;;12.43;5.00;;;4.80;99.90;;;;;;5048113;28;20063;-69
2024/02/11 09:00:50;;;;;;;12.00;5.07;;;4.90;99.90;;;;;;5045983;28;20475;-69
2024/02/11 09:03:15;;;;;;;8.50;3.83;;;4.90;99.90;;;;;;5043075;28;20059;-69
2024/02/11 09:05:42;;;;;;;11.18;5.13;;;4.90;99.90;;;;;;5047778;28;20427;-69
2024/02/11 09:08:07;;;;;;;10.05;4.45;;;4.90;99.90;;;;;;5045673;28;20373;-69
2024/02/11 09:10:33;;;;;;;11.07;5.25;;;4.90;99.90;;;;;;5044694;28;20135;-70
2024/02/11 09:12:59;;;;;;;12.27;5.40;;;4.90;99.90;;;;;;5045298;28;20051;-71
2024/02/11 09:15:24;;;;;;;10.18;4.93;;;4.90;99.90;;;;;;5046185;28;20127;-70
2024/02/11 09:17:50;;;;;;;12.32;5.47;;;4.90;99.90;;;;;;5048416;28;20056;-70
2024/02/11 09:20:18;;;;;;;10.07;4.47;;;4.90;99.90;;;;;;5047362;28;20025;-70
2024/02/11 09:22:44;;;;;;;8.98;3.90;;;4.80;99.90;;;;;;5048374;28;20062;-70
2024/02/11 09:25:11;;;;;;;9.98;4.20;;;4.90;99.90;;;;;;5035464;28;20109;-70
2024/02/11 09:27:38;;;;;;;9.40;4.57;;;4.90;99.90;;;;;;5040671;28;20446;-70
2024/02/11 09:30:07;;;;;;;9.77;4.85;;;4.90;99.90;;;;;;5051516;28;20059;-70
2024/02/11 09:32:34;;;;;;;11.57;4.80;;;4.90;99.90;;;;;;5054812;28;20044;-71
2024/02/11 09:35:00;;;;;;;10.80;4.65;;;4.90;99.90;;;;;;5053306;28;20037;-70
2024/02/11 09:37:26;;;;;;;12.43;5.30;;;4.90;99.90;;;;;;5045711;28;20032;-70
2024/02/11 09:39:52;;;;;;;10.52;4.43;;;4.90;99.90;;;;;;5031261;28;20025;-70
2024/02/11 09:42:20;;;;;;;14.55;5.18;;;5.00;99.90;;;;;;5046160;28;20509;-70
2024/02/11 09:44:50;;;;;;;9.85;4.60;;;5.00;99.90;;;;;;5050967;28;20123;-70
2024/02/11 09:47:17;;;;;;;8.95;4.15;;;5.00;99.90;;;;;;5049823;28;20041;-70
2024/02/11 09:49:46;;;;;;;14.65;5.45;;;5.00;99.90;;;;;;5048352;28;20028;-71
2024/02/11 09:52:13;;;;;;;10.68;4.57;;;5.00;99.90;;;;;;5046504;28;20080;-70
2024/02/11 09:54:43;;;;;;;13.95;4.82;;;5.00;99.90;;;;;;5042028;28;20531;-70
2024/02/11 09:57:08;;;;;;;12.13;5.15;;;5.00;99.90;;;;;;5044452;28;20051;-71
2024/02/11 09:59:34;;;;;;;9.93;4.30;;;5.10;99.90;;;;;;5048603;28;20081;-69
2024/02/11 10:02:01;;;;;;;10.48;4.60;;;5.00;99.90;;;;;;5045668;28;20063;-70
2024/02/11 10:04:30;;;;;;;12.77;4.35;;;5.10;99.90;;;;;;5047176;28;20594;-69
2024/02/11 10:06:59;;;;;;;10.90;4.38;;;5.00;99.90;;;;;;5051656;28;20051;-69
2024/02/11 10:09:26;;;;;;;10.20;5.10;;;5.00;99.90;;;;;;5045823;28;20191;-69
2024/02/11 10:11:51;;;;;;;9.60;5.22;;;5.00;99.90;;;;;;5045207;28;20066;-69
2024/02/11 10:14:18;;;;;;;11.18;4.75;;;5.00;99.90;;;;;;5043550;28;20032;-69
2024/02/11 10:16:44;;;;;;;9.43;4.72;;;5.10;99.90;;;;;;5040859;28;20037;-69
2024/02/11 10:19:11;;;;;;;10.65;4.95;;;5.10;99.90;;;;;;5046929;28;20052;-69
2024/02/11 10:21:36;;;;;;;9.45;4.35;;;5.10;99.90;;;;;;5048420;28;20051;-69
2024/02/11 10:24:03;;;;;;;9.40;4.68;;;5.10;99.90;;;;;;5044277;28;20111;-69
2024/02/11 10:26:31;;;;;;;10.48;4.78;;;5.10;99.90;;;;;;5039485;28;20052;-69
2024/02/11 10:28:59;;;;;;;11.93;5.35;;;5.20;99.90;;;;;;5049446;28;20072;-69
2024/02/11 10:31:25;;;;;;;12.32;5.25;;;5.10;99.90;;;;;;5048907;28;20025;-69
2024/02/11 10:33:51;;;;;;;12.35;4.25;;;5.10;99.90;;;;;;5054214;28;20030;-69
2024/02/11 10:36:16;;;;;;;12.88;5.22;;;5.20;99.90;;;;;;5049324;28;20041;-69
2024/02/11 10:38:42;;;;;;;11.52;4.55;;;5.20;99.90;;;;;;5048604;28;20039;-69
2024/02/11 10:41:08;;;;;;;11.38;4.13;;;5.20;99.90;;;;;;5047131;28;20036;-69
2024/02/11 10:43:34;;;;;;;10.52;4.47;;;5.20;99.90;;;;;;5038716;28;20117;-69
2024/02/11 10:46:02;;;;;;;8.20;4.43;;;5.10;99.90;;;;;;5048124;28;20055;-69
2024/02/11 10:48:28;;;;;;;10.20;3.95;;;5.10;99.90;;;;;;5052400;28;20372;-69
2024/02/11 10:51:08;;;;;;;10.20;4.80;;;5.20;99.90;;;;;;5049973;28;20071;-69
2024/02/11 10:53:37;;;;;;;12.43;4.65;;;5.20;99.90;;;;;;5031392;28;20033;-69
2024/02/11 10:56:04;;;;;;;10.23;4.60;;;5.20;99.90;;;;;;5049927;28;20133;-69
2024/02/11 10:58:36;;;;;;;12.10;4.53;;;5.20;99.90;;;;;;5045191;28;20091;-69
2024/02/11 11:01:04;;;;;;;10.52;4.68;;;5.20;99.90;;;;;;5055362;28;20604;-69
2024/02/11 11:03:31;;;;;;;13.27;4.85;;;5.20;99.90;;;;;;5049051;28;20424;-69
2024/02/11 11:05:58;;;;;;;13.45;5.38;;;5.30;99.90;;;;;;5050962;28;20638;-69
2024/02/11 11:08:24;;;;;;;10.18;4.40;;;5.20;99.90;;;;;;5051975;28;20041;-69
2024/02/11 11:10:50;;;;;;;9.35;4.18;;;5.40;99.90;;;;;;5047552;28;20021;-69
2024/02/11 11:13:23;;;;;;;9.68;4.75;;;5.50;99.90;;;;;;5050747;28;20062;-69
2024/02/11 11:15:50;;;;;;;9.95;4.05;;;5.50;99.90;;;;;;5050611;28;20070;-70
2024/02/11 11:18:21;;;;;;;11.02;4.80;;;5.60;99.90;;;;;;5051064;28;20102;-69
2024/02/11 11:20:54;;;;;;;10.70;4.43;;;5.40;99.90;;;;;;5050085;28;20036;-69
2024/02/11 11:23:24;;;;;;;11.10;4.43;;;5.50;99.90;;;;;;5056514;28;20047;-69
2024/02/11 11:25:55;;;;;;;9.57;5.00;;;5.50;99.90;;;;;;5043988;28;20033;-69
2024/02/11 11:28:20;;;;;;;;;;;5.50;99.90;;;;;;5048297;28;20077;-69
2024/02/11 11:30:46;;;;;;;10.07;4.65;;;5.40;99.90;;;;;;5052672;28;19976;-69
2024/02/11 11:33:12;;;;;;;8.23;4.40;;;5.50;99.90;;;;;;5052162;28;20051;-69
2024/02/11 11:35:39;;;;;;;13.90;4.93;;;5.50;99.90;;;;;;5044991;28;20427;-69
2024/02/11 11:38:06;;;;;;;9.98;4.10;;;5.50;99.90;;;;;;5049422;28;20434;-69
2024/02/11 11:40:36;;;;;;;13.05;5.30;;;5.40;99.90;;;;;;5046771;28;20375;-69
2024/02/11 11:43:20;;;;;;;11.68;4.35;;;5.50;99.90;;;;;;5048642;28;20435;-69
2024/02/11 11:45:57;;;;;;;12.48;4.85;;;5.50;99.90;;;;;;5049177;28;20042;-69
2024/02/11 11:48:23;;;;;;;13.57;5.05;;;5.40;99.90;;;;;;5050042;28;20041;-69
2024/02/11 11:50:59;;;;;;;11.38;4.72;;;5.40;99.90;;;;;;5044653;28;20050;-69
2024/02/11 11:53:26;;;;;;;9.00;4.43;;;5.40;99.90;;;;;;5045728;28;20335;-69
2024/02/11 11:55:52;;;;;;;9.95;4.72;;;5.40;99.90;;;;;;5045442;28;20454;-69
2024/02/11 11:58:23;;;;;;;10.07;4.75;;;5.40;99.90;;;;;;5047400;28;20051;-69
2024/02/11 12:00:55;;;;;;;8.93;3.67;;;5.40;99.90;;;;;;5048461;28;20091;-69
2024/02/11 12:03:22;;;;;;;9.63;4.57;;;5.40;99.90;;;;;;5046681;28;20048;-69
2024/02/11 12:05:47;;;;;;;11.90;4.70;;;5.40;99.90;;;;;;5048697;28;20100;-69
2024/02/11 12:08:15;;;;;;;11.73;5.10;;;5.40;99.90;;;;;;5050370;28;20037;-69
2024/02/11 12:10:40;;;;;;;15.32;5.13;;;5.50;99.90;;;;;;5042194;28;20076;-69
2024/02/11 12:13:13;;;;;;;8.85;4.05;;;5.50;99.90;;;;;;5048099;28;20033;-69
2024/02/11 12:15:40;;;;;;;9.23;4.63;;;5.40;99.90;;;;;;5055178;28;20121;-69
2024/02/11 12:18:09;;;;;;;10.68;5.10;;;5.50;99.90;;;;;;5030146;28;20170;-69
2024/02/11 12:20:37;;;;;;;10.68;4.63;;;5.60;99.90;;;;;;5044506;28;20024;-70
2024/02/11 12:23:04;;;;;;;10.52;4.25;;;5.50;99.90;;;;;;5046160;28;20076;-69
2024/02/11 12:25:31;;;;;;;9.75;4.88;;;5.50;99.90;;;;;;5048869;28;20202;-69
2024/02/11 12:27:58;;;;;;;9.15;5.18;;;5.40;99.90;;;;;;5027588;28;20037;-69
2024/02/11 12:30:24;;;;;;;12.23;5.35;;;5.30;99.90;;;;;;5050110;28;20094;-69
2024/02/11 12:32:52;;;;;;;11.65;4.25;;;5.40;99.90;;;;;;5048069;28;20043;-69
2024/02/11 12:35:31;;;;;;;9.68;4.72;;;5.30;99.90;;;;;;5044213;28;20101;-69
2024/02/11 12:37:57;;;;;;;11.07;5.32;;;5.40;99.90;;;;;;5049356;28;20025;-69
2024/02/11 12:40:23;;;;;;;11.73;4.93;;;5.30;99.90;;;;;;5047608;28;20094;-69
2024/02/11 12:42:59;;;;;;;9.93;4.35;;;5.30;99.90;;;;;;5046163;28;20036;-69
2024/02/11 12:45:25;;;;;;;11.20;4.75;;;5.40;99.90;;;;;;5043702;28;20058;-69
2024/02/11 12:47:50;;;;;;;13.70;5.93;;;5.30;99.90;;;;;;5046925;28;20040;-69
2024/02/11 12:50:18;;;;;;;12.68;6.00;;;5.40;99.90;;;;;;5046255;28;20037;-69
2024/02/11 12:52:44;;;;;;;10.75;5.00;;;5.40;99.90;;;;;;5049010;28;20094;-69